Lenapah, Oklahoma
Current Conditions -  °F | °C
As of 12:52 PM on Thursday 23 Oct 2014 (Local Time) from KCFV Reporting Station
Light Rain Light Rain  
Wind Chill: 62°   Ceiling: 1200
Heat Index: 62°   Visibility: 10mi
Dew Point: 57°   Wind: 13mph
Humidity: 84%   Direction: 190°S
Pressure: 30.15"   Gusts: NA
Location:  36.85°N, 95.64°W
Report Text: KCFV 231752Z AUTO 19011KT 10SM -RA OVC012 17/14 A3015 RMK AO2 SLP206 P0000 60000 T01670139 10172 20150 58001
Loading
Personal Weather Stations






























Interactive Weather Map
Tropical Storm Tracking
New forecast layout! Learn more

10-Day Weather Forecast

Advertisements
Track Severe Weather on mobile